createdAt,value
2018-11-28T00:00:15.840Z,1.60
2018-11-28T00:02:44.449Z,1.60
2018-11-28T00:05:13.425Z,1.60
2018-11-28T00:07:42.343Z,1.60
2018-11-28T00:10:13.235Z,1.60
2018-11-28T00:12:42.125Z,1.60
2018-11-28T00:15:14.162Z,1.60
2018-11-28T00:17:42.820Z,1.60
2018-11-28T00:20:12.780Z,1.60
2018-11-28T00:22:41.507Z,1.60
2018-11-28T00:25:11.056Z,1.50
2018-11-28T00:27:39.698Z,1.50
2018-11-28T00:30:13.375Z,1.50
2018-11-28T00:32:42.337Z,1.50
2018-11-28T00:35:15.963Z,1.60
2018-11-28T00:37:44.650Z,1.60
2018-11-28T00:40:14.336Z,1.60
2018-11-28T00:42:42.981Z,1.60
2018-11-28T00:45:15.811Z,1.50
2018-11-28T00:47:44.494Z,1.50
2018-11-28T00:50:15.242Z,1.50
2018-11-28T00:52:43.885Z,1.50
2018-11-28T00:55:13.593Z,1.50
2018-11-28T00:57:42.188Z,1.50
2018-11-28T01:00:16.232Z,1.50
2018-11-28T01:02:44.926Z,1.60
2018-11-28T01:05:14.172Z,1.50
2018-11-28T01:07:43.373Z,1.50
2018-11-28T01:10:13.225Z,1.50
2018-11-28T01:12:41.874Z,1.50
2018-11-28T01:15:11.851Z,1.50
2018-11-28T01:17:40.541Z,1.50
2018-11-28T01:20:12.304Z,1.50
2018-11-28T01:22:40.938Z,1.50
2018-11-28T01:25:10.774Z,1.40
2018-11-28T01:27:39.384Z,1.50
2018-11-28T01:30:13.621Z,1.40
2018-11-28T01:32:42.250Z,1.50
2018-11-28T01:35:14.192Z,1.40
2018-11-28T01:37:43.276Z,1.40
2018-11-28T01:40:14.940Z,1.40
2018-11-28T01:42:43.586Z,1.40
2018-11-28T01:45:18.012Z,1.40
2018-11-28T01:47:46.727Z,1.40
2018-11-28T01:50:16.359Z,1.40
2018-11-28T01:52:44.947Z,1.30
2018-11-28T01:55:14.691Z,1.30
2018-11-28T01:57:43.305Z,1.30
2018-11-28T02:00:14.564Z,1.30
2018-11-28T02:02:43.225Z,1.30
2018-11-28T02:05:12.506Z,1.30
2018-11-28T02:07:41.200Z,1.30
2018-11-28T02:10:12.187Z,1.20
2018-11-28T02:12:40.976Z,1.20
2018-11-28T02:15:14.727Z,1.20
2018-11-28T02:17:43.341Z,1.20
2018-11-28T02:20:13.817Z,1.20
2018-11-28T02:22:42.539Z,1.20
2018-11-28T02:25:12.365Z,1.20
2018-11-28T02:27:40.994Z,1.20
2018-11-28T02:30:12.207Z,1.20
2018-11-28T02:32:40.880Z,1.20
2018-11-28T02:35:11.603Z,1.20
2018-11-28T02:37:40.241Z,1.20
2018-11-28T02:40:12.330Z,1.20
2018-11-28T02:42:40.936Z,1.20
2018-11-28T02:45:12.310Z,1.20
2018-11-28T02:47:40.921Z,1.10
2018-11-28T02:50:09.680Z,1.10
2018-11-28T02:52:38.274Z,1.20
2018-11-28T02:55:08.924Z,1.20
2018-11-28T02:57:37.544Z,1.20
2018-11-28T03:00:12.104Z,1.20
2018-11-28T03:02:40.689Z,1.20
2018-11-28T03:05:11.645Z,1.20
2018-11-28T03:07:40.278Z,1.20
2018-11-28T03:10:16.657Z,1.20
2018-11-28T03:12:45.259Z,1.20
2018-11-28T03:15:17.118Z,1.10
2018-11-28T03:17:45.716Z,1.10
2018-11-28T03:20:21.202Z,1.10
2018-11-28T03:22:49.809Z,1.10
2018-11-28T03:25:18.415Z,1.20
2018-11-28T03:27:47.125Z,1.20
2018-11-28T03:30:16.386Z,1.20
2018-11-28T03:32:45.016Z,1.10
2018-11-28T03:35:14.899Z,1.10
2018-11-28T03:37:43.719Z,1.20
2018-11-28T03:40:12.632Z,1.20
2018-11-28T03:42:41.705Z,1.20
2018-11-28T03:45:16.282Z,1.20
2018-11-28T03:47:45.640Z,1.20
2018-11-28T03:50:15.988Z,1.20
2018-11-28T03:52:44.656Z,1.20
2018-11-28T03:55:15.110Z,1.20
2018-11-28T03:57:44.956Z,1.20
2018-11-28T04:00:15.711Z,1.20
2018-11-28T04:02:44.378Z,1.20
2018-11-28T04:05:13.309Z,1.20
2018-11-28T04:07:42.029Z,1.20
2018-11-28T04:10:11.894Z,1.30
2018-11-28T04:12:41.143Z,1.20
2018-11-28T04:15:14.430Z,1.30
2018-11-28T04:17:43.028Z,1.30
2018-11-28T04:20:14.027Z,1.20
2018-11-28T04:22:42.708Z,1.20
2018-11-28T04:25:12.178Z,1.20
2018-11-28T04:27:40.924Z,1.20
2018-11-28T04:30:18.468Z,1.20
2018-11-28T04:32:47.710Z,1.20
2018-11-28T04:35:16.417Z,1.20
2018-11-28T04:37:45.594Z,1.20
2018-11-28T04:40:15.097Z,1.20
2018-11-28T04:42:44.156Z,1.20
2018-11-28T04:45:24.041Z,1.20
2018-11-28T04:47:53.642Z,1.20
2018-11-28T04:50:22.340Z,1.20
2018-11-28T04:52:50.926Z,1.30
2018-11-28T04:55:20.281Z,1.20
2018-11-28T04:57:49.138Z,1.20
2018-11-28T05:00:20.068Z,1.20
2018-11-28T05:02:49.006Z,1.10
2018-11-28T05:05:17.684Z,1.10
2018-11-28T05:07:47.066Z,1.10
2018-11-28T05:10:17.583Z,1.10
2018-11-28T05:12:46.410Z,1.10
2018-11-28T05:15:17.086Z,1.20
2018-11-28T05:17:47.869Z,1.20
2018-11-28T05:20:17.501Z,1.20
2018-11-28T05:22:46.118Z,1.20
2018-11-28T05:25:16.220Z,1.20
2018-11-28T05:27:44.943Z,1.20
2018-11-28T05:30:15.640Z,1.10
2018-11-28T05:32:44.298Z,1.10
2018-11-28T05:35:17.165Z,1.20
2018-11-28T05:37:46.068Z,1.20
2018-11-28T05:40:20.889Z,1.10
2018-11-28T05:42:49.608Z,1.20
2018-11-28T05:45:18.354Z,1.20
2018-11-28T05:47:46.993Z,1.20
2018-11-28T05:50:17.667Z,1.20
2018-11-28T05:52:46.313Z,1.20
2018-11-28T05:55:15.772Z,1.10
2018-11-28T05:57:44.405Z,1.20
2018-11-28T06:00:26.161Z,1.20
2018-11-28T06:02:54.823Z,1.20
2018-11-28T06:05:23.443Z,1.20
2018-11-28T06:07:52.108Z,1.20
2018-11-28T06:10:20.714Z,1.30
2018-11-28T06:12:49.322Z,1.30
2018-11-28T06:15:18.072Z,1.30
2018-11-28T06:17:46.826Z,1.30
2018-11-28T06:20:16.206Z,1.30
2018-11-28T06:22:44.976Z,1.30
2018-11-28T06:25:16.695Z,1.30
2018-11-28T06:27:44.549Z,1.40
2018-11-28T06:30:15.312Z,1.30
2018-11-28T06:32:44.138Z,1.30
2018-11-28T06:35:13.049Z,1.30
2018-11-28T06:37:41.882Z,1.30
2018-11-28T06:40:15.789Z,1.30
2018-11-28T06:42:45.365Z,1.30
2018-11-28T06:45:18.290Z,1.30
2018-11-28T06:47:46.980Z,1.30
2018-11-28T06:50:16.595Z,1.30
2018-11-28T06:52:46.500Z,1.30
2018-11-28T06:55:17.084Z,1.30
2018-11-28T06:57:45.768Z,1.30
2018-11-28T07:00:22.398Z,1.30
2018-11-28T07:02:52.116Z,1.30
2018-11-28T07:05:21.354Z,1.30
2018-11-28T07:07:50.196Z,1.30
2018-11-28T07:10:20.729Z,1.40
2018-11-28T07:12:49.409Z,1.40
2018-11-28T07:15:20.308Z,1.50
2018-11-28T07:17:49.223Z,1.50
2018-11-28T07:20:18.020Z,1.60
2018-11-28T07:22:46.648Z,1.60
2018-11-28T07:25:17.397Z,1.60
2018-11-28T07:27:46.827Z,1.60
2018-11-28T07:30:22.349Z,1.60
2018-11-28T07:32:52.397Z,1.60
2018-11-28T07:35:21.073Z,1.60
2018-11-28T07:37:49.692Z,1.70
2018-11-28T07:40:20.825Z,1.80
2018-11-28T07:42:55.686Z,1.80
2018-11-28T07:45:24.401Z,1.80
2018-11-28T07:47:53.021Z,1.80
2018-11-28T07:50:21.773Z,1.80
2018-11-28T07:52:50.441Z,1.90
2018-11-28T07:55:19.061Z,1.90
2018-11-28T07:57:47.681Z,2.00
2018-11-28T08:00:16.484Z,2.00
2018-11-28T08:02:45.327Z,2.00
2018-11-28T08:05:14.060Z,2.10
2018-11-28T08:07:42.703Z,2.10
2018-11-28T08:10:19.721Z,2.20
2018-11-28T08:12:48.741Z,2.20
2018-11-28T08:15:17.434Z,2.20
2018-11-28T08:17:46.205Z,2.20
2018-11-28T08:20:14.944Z,2.30
2018-11-28T08:22:43.703Z,2.30
2018-11-28T08:25:15.579Z,2.40
2018-11-28T08:27:45.509Z,2.40
2018-11-28T08:30:20.210Z,2.40
2018-11-28T08:32:48.896Z,2.40
2018-11-28T08:35:17.584Z,2.50
2018-11-28T08:37:46.352Z,2.50
2018-11-28T08:40:16.265Z,2.50
2018-11-28T08:42:44.896Z,2.60
2018-11-28T08:45:15.893Z,2.60
2018-11-28T08:47:45.425Z,2.60
2018-11-28T08:50:17.573Z,2.70
2018-11-28T08:52:46.253Z,2.70
2018-11-28T08:55:14.966Z,2.80
2018-11-28T08:57:43.703Z,2.80
2018-11-28T09:00:14.577Z,2.80
2018-11-28T09:02:43.333Z,2.80
2018-11-28T09:05:14.260Z,2.90
2018-11-28T09:07:43.045Z,2.90
2018-11-28T09:10:14.649Z,3.00
2018-11-28T09:12:43.660Z,3.10
2018-11-28T09:15:14.807Z,3.10
2018-11-28T09:17:43.438Z,3.10
2018-11-28T09:20:13.123Z,3.20
2018-11-28T09:22:41.839Z,3.20
2018-11-28T09:25:15.468Z,3.30
2018-11-28T09:27:48.027Z,3.40
2018-11-28T09:30:17.665Z,3.50
2018-11-28T09:32:46.721Z,3.60
2018-11-28T09:35:15.743Z,3.70
2018-11-28T09:37:45.695Z,3.70
2018-11-28T09:40:18.949Z,3.80
2018-11-28T09:42:48.075Z,3.80
2018-11-28T09:45:17.576Z,3.90
2018-11-28T09:47:46.272Z,4.00
2018-11-28T09:50:18.027Z,4.00
2018-11-28T09:52:46.755Z,4.10
2018-11-28T09:55:19.482Z,4.10
2018-11-28T09:57:48.323Z,4.10
2018-11-28T10:00:18.443Z,4.10
2018-11-28T10:02:47.365Z,4.20
2018-11-28T10:05:18.428Z,4.20
2018-11-28T10:07:47.080Z,4.20
2018-11-28T10:10:15.887Z,4.20
2018-11-28T10:12:44.585Z,4.30
2018-11-28T10:15:20.261Z,4.30
2018-11-28T10:17:49.048Z,4.30
2018-11-28T10:20:18.381Z,4.30
2018-11-28T10:22:47.687Z,4.30
2018-11-28T10:25:19.203Z,4.30
2018-11-28T10:27:51.067Z,4.40
2018-11-28T10:30:21.915Z,4.40
2018-11-28T10:32:51.438Z,4.40
2018-11-28T10:35:20.139Z,4.50
2018-11-28T10:37:48.887Z,4.50
2018-11-28T10:40:19.498Z,4.50
2018-11-28T10:42:49.400Z,4.50
2018-11-28T10:45:20.256Z,4.50
2018-11-28T10:47:48.968Z,4.60
2018-11-28T10:50:18.067Z,4.60
2018-11-28T10:52:46.524Z,4.60
2018-11-28T10:55:19.988Z,4.70
2018-11-28T10:57:48.716Z,4.80
2018-11-28T11:00:38.227Z,4.80
2018-11-28T11:03:12.745Z,5.00
2018-11-28T11:05:46.837Z,5.10
2018-11-28T11:08:20.923Z,5.10
2018-11-28T11:11:31.330Z,5.10
2018-11-28T11:14:05.360Z,5.20
2018-11-28T11:16:34.035Z,5.30
2018-11-28T11:19:02.707Z,5.40
2018-11-28T11:21:31.374Z,5.40
2018-11-28T11:24:00.038Z,5.60
2018-11-28T11:26:28.692Z,5.70
2018-11-28T11:28:57.393Z,5.80
2018-11-28T11:31:26.051Z,5.80
2018-11-28T11:33:54.707Z,5.90
2018-11-28T11:36:23.386Z,5.90
2018-11-28T11:38:52.081Z,6.00
2018-11-28T11:41:20.785Z,6.10
2018-11-28T11:43:49.460Z,6.10
2018-11-28T11:46:18.096Z,6.20
2018-11-28T11:48:49.696Z,6.20
2018-11-28T11:51:18.418Z,6.20
2018-11-28T11:53:47.079Z,6.20
2018-11-28T11:56:15.687Z,6.20
2018-11-28T11:58:44.315Z,6.20
2018-11-28T12:01:12.979Z,6.20
2018-11-28T12:03:41.624Z,6.30
2018-11-28T12:06:10.383Z,6.30
2018-11-28T12:08:39.048Z,6.30
2018-11-28T12:11:07.779Z,6.30
2018-11-28T12:13:36.526Z,6.40
2018-11-28T12:16:05.489Z,6.40
2018-11-28T12:18:34.125Z,6.40
2018-11-28T12:21:04.651Z,6.40
2018-11-28T12:23:33.353Z,6.50
2018-11-28T12:26:01.997Z,6.50
2018-11-28T12:28:30.708Z,6.40
2018-11-28T12:30:59.429Z,6.40
2018-11-28T12:33:28.316Z,6.30
2018-11-28T12:35:57.032Z,6.30
2018-11-28T12:38:25.777Z,6.30
2018-11-28T12:40:54.468Z,6.20
2018-11-28T12:43:23.107Z,6.20
2018-11-28T12:45:51.936Z,6.20
2018-11-28T12:48:20.571Z,6.20
2018-11-28T12:50:49.217Z,6.10
2018-11-28T12:53:17.853Z,6.10
2018-11-28T12:55:46.488Z,6.10
2018-11-28T12:58:17.503Z,6.10
2018-11-28T13:00:46.305Z,6.10
2018-11-28T13:03:17.336Z,6.20
2018-11-28T13:05:45.963Z,6.20
2018-11-28T13:08:14.617Z,6.20
2018-11-28T13:10:44.267Z,6.30
2018-11-28T13:13:13.163Z,6.30
2018-11-28T13:15:41.869Z,6.40
2018-11-28T13:18:11.351Z,6.50
2018-11-28T13:20:41.498Z,6.50
2018-11-28T13:23:13.288Z,6.60
2018-11-28T13:25:42.021Z,6.70
2018-11-28T13:28:10.776Z,6.70
2018-11-28T13:30:39.585Z,6.80
2018-11-28T13:33:09.092Z,6.90
2018-11-28T13:35:37.840Z,7.00
2018-11-28T13:38:11.727Z,7.00
2018-11-28T13:40:40.691Z,7.00
2018-11-28T13:43:09.445Z,7.10
2018-11-28T13:45:40.843Z,7.10
2018-11-28T13:48:09.725Z,7.10
2018-11-28T13:50:38.531Z,6.90
2018-11-28T13:53:09.426Z,6.90
2018-11-28T13:55:41.703Z,6.80
2018-11-28T13:58:08.840Z,6.80
2018-11-28T14:00:37.902Z,6.70
2018-11-28T14:03:06.679Z,6.70
2018-11-28T14:05:35.619Z,6.70
2018-11-28T14:08:04.259Z,6.70
2018-11-28T14:10:33.074Z,6.70
2018-11-28T14:13:01.765Z,6.70
2018-11-28T14:15:30.407Z,6.70
2018-11-28T14:18:04.612Z,6.70
2018-11-28T14:20:33.363Z,6.70
2018-11-28T14:23:02.075Z,6.60
2018-11-28T14:25:30.720Z,6.60
2018-11-28T14:28:00.305Z,6.50
2018-11-28T14:30:29.041Z,6.50
2018-11-28T14:32:57.728Z,6.50
2018-11-28T14:35:26.460Z,6.50
2018-11-28T14:37:55.116Z,6.40
2018-11-28T14:40:25.171Z,6.40
2018-11-28T14:42:55.029Z,6.40
2018-11-28T14:45:23.824Z,6.40
2018-11-28T14:47:52.816Z,6.40
2018-11-28T14:50:25.628Z,6.40
2018-11-28T14:52:55.426Z,6.40
2018-11-28T14:55:41.351Z,6.40
2018-11-28T14:58:11.454Z,6.40
2018-11-28T15:00:40.305Z,6.40
2018-11-28T15:03:11.323Z,6.40
2018-11-28T15:06:23.696Z,6.40
2018-11-28T15:08:52.406Z,6.40
2018-11-28T15:11:21.094Z,6.30
2018-11-28T15:13:49.724Z,6.30
2018-11-28T15:16:18.388Z,6.30
2018-11-28T15:18:47.050Z,6.20
2018-11-28T15:21:15.757Z,6.20
2018-11-28T15:23:44.397Z,6.20
2018-11-28T15:26:13.148Z,6.30
2018-11-28T15:28:41.845Z,6.30
2018-11-28T15:31:14.385Z,6.20
2018-11-28T15:33:43.180Z,6.20
2018-11-28T15:36:11.818Z,6.20
2018-11-28T15:38:40.845Z,6.30
2018-11-28T15:41:09.551Z,6.30
2018-11-28T15:43:38.229Z,6.20
2018-11-28T15:46:06.980Z,6.20
2018-11-28T15:48:35.678Z,6.20
2018-11-28T15:51:04.470Z,6.20
2018-11-28T15:53:33.197Z,6.20
2018-11-28T15:56:01.867Z,6.20
2018-11-28T15:58:30.503Z,6.20
2018-11-28T16:00:59.188Z,6.20
2018-11-28T16:03:27.904Z,6.10
2018-11-28T16:05:56.621Z,6.20
2018-11-28T16:08:25.325Z,6.20
2018-11-28T16:10:54.107Z,6.20
2018-11-28T16:13:22.859Z,6.30
2018-11-28T16:15:53.904Z,6.30
2018-11-28T16:18:22.672Z,6.30
2018-11-28T16:20:51.427Z,6.30
2018-11-28T16:23:20.252Z,6.30
2018-11-28T16:25:48.946Z,6.30
2018-11-28T16:28:17.633Z,6.30
2018-11-28T16:30:46.487Z,6.30
2018-11-28T16:33:15.296Z,6.30
2018-11-28T16:35:44.030Z,6.30
2018-11-28T16:38:12.874Z,6.30
2018-11-28T16:40:41.658Z,6.30
2018-11-28T16:43:10.608Z,6.30
2018-11-28T16:45:39.344Z,6.30
2018-11-28T16:48:08.112Z,6.30
2018-11-28T16:50:36.782Z,6.30
2018-11-28T16:53:06.252Z,6.30
2018-11-28T16:55:35.364Z,6.30
2018-11-28T16:58:04.081Z,6.30
2018-11-28T17:00:34.687Z,6.40
2018-11-28T17:03:03.392Z,6.40
2018-11-28T17:05:32.188Z,6.40
2018-11-28T17:08:01.028Z,6.40
2018-11-28T17:10:30.381Z,6.40
2018-11-28T17:12:59.768Z,6.40
2018-11-28T17:15:28.489Z,6.40
2018-11-28T17:17:57.152Z,6.50
2018-11-28T17:20:27.054Z,6.50
2018-11-28T17:22:57.838Z,6.50
2018-11-28T17:25:30.811Z,6.50
2018-11-28T17:27:59.639Z,6.50
2018-11-28T17:30:31.465Z,6.50
2018-11-28T17:33:00.205Z,6.60
2018-11-28T17:35:28.922Z,6.60
2018-11-28T17:37:57.588Z,6.50
2018-11-28T17:40:27.485Z,6.60
2018-11-28T17:42:57.154Z,6.60
2018-11-28T17:45:26.364Z,6.60
2018-11-28T17:47:55.093Z,6.60
2018-11-28T17:50:25.060Z,6.60
2018-11-28T17:53:12.945Z,6.60
2018-11-28T17:55:43.450Z,6.60
2018-11-28T17:58:12.141Z,6.60
2018-11-28T18:00:40.810Z,6.70
2018-11-28T18:03:09.468Z,6.70
2018-11-28T18:05:38.173Z,6.70
2018-11-28T18:08:07.114Z,6.70
2018-11-28T18:10:35.827Z,6.70
2018-11-28T18:13:12.485Z,6.70
2018-11-28T18:15:45.822Z,6.70
2018-11-28T18:18:16.149Z,6.70
2018-11-28T18:20:49.897Z,6.70
2018-11-28T18:23:13.659Z,6.70
2018-11-28T18:25:43.104Z,6.70
2018-11-28T18:28:11.772Z,6.70
2018-11-28T18:30:40.506Z,6.80
2018-11-28T18:33:10.440Z,6.80
2018-11-28T18:35:39.140Z,6.80
2018-11-28T18:38:07.873Z,6.80
2018-11-28T18:40:36.698Z,6.80
2018-11-28T18:43:06.862Z,6.80
2018-11-28T18:48:28.667Z,6.90
2018-11-28T18:50:57.501Z,6.90
2018-11-28T18:53:27.719Z,6.90
2018-11-28T18:55:56.480Z,6.90
2018-11-28T18:58:25.273Z,6.90
2018-11-28T19:00:54.033Z,6.90
2018-11-28T19:03:22.777Z,6.90
2018-11-28T19:05:51.780Z,6.90
2018-11-28T19:08:20.499Z,6.90
2018-11-28T19:10:49.178Z,6.90
2018-11-28T19:13:18.367Z,6.90
2018-11-28T19:15:46.782Z,6.90
2018-11-28T19:18:15.560Z,6.90
2018-11-28T19:20:44.321Z,6.90
2018-11-28T19:23:13.162Z,6.90
2018-11-28T19:25:42.892Z,6.80
2018-11-28T19:28:11.730Z,6.80
2018-11-28T19:30:41.452Z,6.70
2018-11-28T19:33:17.556Z,6.80
2018-11-28T19:35:46.375Z,6.70
2018-11-28T19:38:15.734Z,6.70
2018-11-28T19:40:50.453Z,6.70
2018-11-28T19:43:19.221Z,6.70
2018-11-28T19:45:47.985Z,6.70
2018-11-28T19:48:16.900Z,6.70
2018-11-28T19:50:45.687Z,6.70
2018-11-28T19:53:16.902Z,6.70
2018-11-28T19:55:45.734Z,6.70
2018-11-28T19:58:14.883Z,6.70
2018-11-28T20:00:46.094Z,6.70
2018-11-28T20:03:14.924Z,6.70
2018-11-28T20:05:43.769Z,6.70
2018-11-28T20:08:12.755Z,6.70
2018-11-28T20:10:42.096Z,6.70
2018-11-28T20:13:12.155Z,6.70
2018-11-28T20:15:42.914Z,6.80
2018-11-28T20:18:11.690Z,6.80
2018-11-28T20:20:40.470Z,6.80
2018-11-28T20:23:10.694Z,6.70
2018-11-28T20:25:39.552Z,6.70
2018-11-28T20:28:09.544Z,6.70
2018-11-28T20:30:41.943Z,6.70
2018-11-28T20:33:11.177Z,6.70
2018-11-28T20:35:41.184Z,6.70
2018-11-28T20:38:14.397Z,6.70
2018-11-28T20:40:43.144Z,6.70
2018-11-28T20:43:11.899Z,6.70
2018-11-28T20:45:40.776Z,6.70
2018-11-28T20:48:09.700Z,6.70
2018-11-28T20:50:38.536Z,6.70
2018-11-28T20:53:11.791Z,6.70
2018-11-28T20:55:40.638Z,6.70
2018-11-28T20:58:09.474Z,6.80
2018-11-28T21:00:38.245Z,6.80
2018-11-28T21:03:07.766Z,6.80
2018-11-28T21:05:36.819Z,6.80
2018-11-28T21:08:06.706Z,6.80
2018-11-28T21:10:41.077Z,6.80
2018-11-28T21:13:11.263Z,6.80
2018-11-28T21:15:40.945Z,6.80
2018-11-28T21:18:10.019Z,6.80
2018-11-28T21:20:39.743Z,6.90
2018-11-28T21:23:11.514Z,6.90
2018-11-28T21:25:40.248Z,6.90
2018-11-28T21:28:09.297Z,6.90
2018-11-28T21:30:38.130Z,6.90
2018-11-28T21:33:08.517Z,6.90
2018-11-28T21:35:40.703Z,7.00
2018-11-28T21:38:09.724Z,7.00
2018-11-28T21:40:38.449Z,7.00
2018-11-28T21:43:07.332Z,7.00
2018-11-28T21:45:36.067Z,7.00
2018-11-28T21:48:04.823Z,7.00
2018-11-28T21:50:33.574Z,7.00
2018-11-28T21:53:02.309Z,7.00
2018-11-28T21:55:31.438Z,7.10
2018-11-28T21:58:00.129Z,7.10
2018-11-28T22:00:28.976Z,7.10
2018-11-28T22:02:57.723Z,7.10
2018-11-28T22:05:27.113Z,7.10
2018-11-28T22:07:55.793Z,7.10
2018-11-28T22:10:25.336Z,7.10
2018-11-28T22:12:54.976Z,7.10
2018-11-28T22:15:23.699Z,7.20
2018-11-28T22:17:54.296Z,7.20
2018-11-28T22:20:23.724Z,7.20
2018-11-28T22:22:52.559Z,7.20
2018-11-28T22:25:25.198Z,7.20
2018-11-28T22:27:54.089Z,7.20
2018-11-28T22:30:26.964Z,7.20
2018-11-28T22:32:55.773Z,7.30
2018-11-28T22:35:24.466Z,7.30
2018-11-28T22:37:53.380Z,7.30
2018-11-28T22:40:24.423Z,7.30
2018-11-28T22:42:53.167Z,7.30
2018-11-28T22:45:23.239Z,7.30
2018-11-28T22:47:51.984Z,7.40
2018-11-28T22:50:20.698Z,7.30
2018-11-28T22:52:49.442Z,7.40
2018-11-28T22:55:18.945Z,7.40
2018-11-28T22:57:47.637Z,7.40
2018-11-28T23:00:25.523Z,7.40
2018-11-28T23:02:59.554Z,7.50
2018-11-28T23:05:31.173Z,7.50
2018-11-28T23:08:02.233Z,7.50
2018-11-28T23:10:30.981Z,7.50
2018-11-28T23:12:59.995Z,7.50
2018-11-28T23:15:28.656Z,7.50
2018-11-28T23:17:57.410Z,7.50
2018-11-28T23:20:26.178Z,7.60
2018-11-28T23:22:54.920Z,7.60
2018-11-28T23:25:23.629Z,7.60
2018-11-28T23:27:52.356Z,7.60
2018-11-28T23:30:21.955Z,7.70
2018-11-28T23:32:51.580Z,7.70
2018-11-28T23:35:20.337Z,7.70
2018-11-28T23:37:49.745Z,7.70
2018-11-28T23:40:26.337Z,7.70
2018-11-28T23:42:55.783Z,7.70
2018-11-28T23:45:25.274Z,7.70
2018-11-28T23:47:53.983Z,7.80
2018-11-28T23:50:25.185Z,7.80
2018-11-28T23:52:54.856Z,7.80
2018-11-28T23:55:26.519Z,7.80
2018-11-28T23:57:55.496Z,7.80
